Bareilly — A8KG7 — position and weather

sailwx.info

Track history (hours):
 
Tides and Currents Weather Stations Pressure Air Temp Water Temp Dewpoint Dewpoint Depression Visibility Wind Speed Wind Dir Waves Ship Positions

Bareilly

Last reported at 2015-Sep-04 00:09 UTC. Time now 2015-Sep-04 01:34 UTC.
Position N 37°29' E 016°20'.

Length 243 m; draft 14.7 m.

Type: Tanker. MMSI: 636013054.

Date/timePositionNaut miles runAvg speedWind from/ knotsBaromVisibWave heightAir tempDewpointWater temp
2015-Sep-04 00:09N 37°29' E 016°20'1112.3
2015-Sep-03 23:15N 37°21' E 016°10'912.2
2015-Sep-03 22:29N 37°14' E 016°03'1312.5
2015-Sep-03 21:27N 37°05' E 015°52'1112.4
2015-Sep-03 20:33N 36°56' E 015°42'1212.2
2015-Sep-03 19:33N 36°47' E 015°32'1211.9
2015-Sep-03 18:33N 36°38' E 015°22'1211.8
2015-Sep-03 17:33N 36°30' E 015°12'1311.9
2015-Sep-03 16:28N 36°20' E 015°02'1211.7
2015-Sep-03 15:27N 36°18' E 014°47'1112.3
2015-Sep-03 14:33N 36°18' E 014°34'1212.1
2015-Sep-03 13:33N 36°22' E 014°19'1212.4
2015-Sep-03 12:33N 36°27' E 014°05'1312.7
2015-Sep-03 11:33N 36°31' E 013°50'1312.6
2015-Sep-03 10:33N 36°36' E 013°36'1313.0
2015-Sep-03 09:33N 36°41' E 013°21'1313.0
2015-Sep-03 08:33N 36°46' E 013°06'1512.9
2015-Sep-03 07:22N 36°51' E 012°48'2412.7
2015-Sep-03 05:30N 36°60' E 012°20'1212.3
2015-Sep-03 04:33N 37°04' E 012°07'1212.3
2015-Sep-03 03:33N 37°09' E 011°53'1212.5
2015-Sep-03 02:33N 37°13' E 011°38'2512.6
2015-Sep-03 00:32N 37°23' E 011°08'6812.4
2015-Sep-02 19:03N 37°31' E 009°43'912.3
2015-Sep-02 18:20N 37°27' E 009°33'1012.8
2015-Sep-02 17:33N 37°24' E 009°21'1312.8
2015-Sep-02 16:33N 37°19' E 009°06'55212.3
2015-Aug-31 19:31N 36°20' W 002°20'1212.1
2015-Aug-31 18:32N 36°19' W 002°35'1412.5
2015-Aug-31 17:23N 36°17' W 002°53'1312.6
2015-Aug-31 16:20N 36°15' W 003°09'16712.1
2015-Aug-31 02:30N 35°54' W 006°34'4011.9
2015-Aug-30 23:09N 35°60' W 007°23'712.1
2015-Aug-30 22:33N 36°02' W 007°31'1312.2
2015-Aug-30 21:31N 36°06' W 007°46'1212.5
2015-Aug-30 20:33N 36°10' W 008°00'1312.5
2015-Aug-30 19:33N 36°13' W 008°15'1212.1
2015-Aug-30 18:33N 36°17' W 008°29'1212.1
2015-Aug-30 17:33N 36°21' W 008°44'1212.0
2015-Aug-30 16:33N 36°24' W 008°58'1212.1
2015-Aug-30 15:33N 36°28' W 009°12'1211.6
2015-Aug-30 14:33N 36°34' W 009°25'1212.4
2015-Aug-30 13:33N 36°43' W 009°35'1211.7
2015-Aug-30 12:30N 36°55' W 009°40'1212.4
2015-Aug-30 11:33N 37°06' W 009°43'1313.1
2015-Aug-30 10:33N 37°19' W 009°48'1312.2
2015-Aug-30 09:28N 37°32' W 009°51'2611.4
2015-Aug-30 07:12N 37°57' W 009°59'811.6
2015-Aug-30 06:30N 38°05' W 010°01'1212.3
2015-Aug-30 05:33N 38°16' W 010°05'1312.4
2015-Aug-30 04:32N 38°28' W 010°09'1212.1
2015-Aug-30 03:33N 38°40' W 010°12'1212.3
2015-Aug-30 02:33N 38°52' W 010°12'1212.1
2015-Aug-30 01:33N 39°04' W 010°12'1212.2
2015-Aug-30 00:33N 39°17' W 010°12'1312.6
2015-Aug-29 23:33N 39°29' W 010°12'1312.7
2015-Aug-29 22:33N 39°42' W 010°12'2812.5
2015-Aug-29 20:20N 40°10' W 010°12'1012.2
2015-Aug-29 19:33N 40°19' W 010°12'1312.6
2015-Aug-29 18:33N 40°32' W 010°12'1212.1
2015-Aug-29 17:32N 40°44' W 010°12'1211.9
2015-Aug-29 16:32N 40°56' W 010°12'  
2015-Aug-27 00:17N 50°24' W 000°37'2212.6
2015-Aug-26 22:32N 50°30' W 000°04'1311.7
2015-Aug-26 21:25N 50°33' E 000°16'911.0
2015-Aug-26 20:33N 50°36' E 000°30'1010.4
2015-Aug-26 19:33N 50°42' E 000°44'1010.1
2015-Aug-26 18:33N 50°47' E 000°58'1010.3
2015-Aug-26 17:33N 50°52' E 001°12'1111.2
2015-Aug-26 16:33N 51°00' E 001°24'1111.4
2015-Aug-26 15:33N 51°08' E 001°37'1211.7
2015-Aug-26 14:33N 51°18' E 001°48'1110.9
2015-Aug-26 13:33N 51°27' E 001°57'1010.0
2015-Aug-26 12:33N 51°35' E 002°07'10 9.9
2015-Aug-26 11:32N 51°43' E 002°18'  
Track history (hours):
 
Tides and Currents Weather Stations Pressure Air Temp Water Temp Dewpoint Dewpoint Depression Visibility Wind Speed Wind Dir Waves Ship Positions

Bareilly

Last reported at 2015-Sep-04 00:09 UTC. Time now 2015-Sep-04 01:34 UTC.
Position N 37°29' E 016°20'.

Length 243 m; draft 14.7 m.

Type: Tanker. MMSI: 636013054.

Date/timePositionNaut miles runAvg speedWind from/ knotsBaromVisibWave heightAir tempDewpointWater temp
2015-Sep-04 00:09N 37°29' E 016°20'1112.3
2015-Sep-03 23:15N 37°21' E 016°10'912.2
2015-Sep-03 22:29N 37°14' E 016°03'1312.5
2015-Sep-03 21:27N 37°05' E 015°52'1112.4
2015-Sep-03 20:33N 36°56' E 015°42'1212.2
2015-Sep-03 19:33N 36°47' E 015°32'1211.9
2015-Sep-03 18:33N 36°38' E 015°22'1211.8
2015-Sep-03 17:33N 36°30' E 015°12'1311.9
2015-Sep-03 16:28N 36°20' E 015°02'1211.7
2015-Sep-03 15:27N 36°18' E 014°47'1112.3
2015-Sep-03 14:33N 36°18' E 014°34'1212.1
2015-Sep-03 13:33N 36°22' E 014°19'1212.4
2015-Sep-03 12:33N 36°27' E 014°05'1312.7
2015-Sep-03 11:33N 36°31' E 013°50'1312.6
2015-Sep-03 10:33N 36°36' E 013°36'1313.0
2015-Sep-03 09:33N 36°41' E 013°21'1313.0
2015-Sep-03 08:33N 36°46' E 013°06'1512.9
2015-Sep-03 07:22N 36°51' E 012°48'2412.7
2015-Sep-03 05:30N 36°60' E 012°20'1212.3
2015-Sep-03 04:33N 37°04' E 012°07'1212.3
2015-Sep-03 03:33N 37°09' E 011°53'1212.5
2015-Sep-03 02:33N 37°13' E 011°38'2512.6
2015-Sep-03 00:32N 37°23' E 011°08'6812.4
2015-Sep-02 19:03N 37°31' E 009°43'912.3
2015-Sep-02 18:20N 37°27' E 009°33'1012.8
2015-Sep-02 17:33N 37°24' E 009°21'1312.8
2015-Sep-02 16:33N 37°19' E 009°06'55212.3
2015-Aug-31 19:31N 36°20' W 002°20'1212.1
2015-Aug-31 18:32N 36°19' W 002°35'1412.5
2015-Aug-31 17:23N 36°17' W 002°53'1312.6
2015-Aug-31 16:20N 36°15' W 003°09'16712.1
2015-Aug-31 02:30N 35°54' W 006°34'4011.9
2015-Aug-30 23:09N 35°60' W 007°23'712.1
2015-Aug-30 22:33N 36°02' W 007°31'1312.2
2015-Aug-30 21:31N 36°06' W 007°46'1212.5
2015-Aug-30 20:33N 36°10' W 008°00'1312.5
2015-Aug-30 19:33N 36°13' W 008°15'1212.1
2015-Aug-30 18:33N 36°17' W 008°29'1212.1
2015-Aug-30 17:33N 36°21' W 008°44'1212.0
2015-Aug-30 16:33N 36°24' W 008°58'1212.1
2015-Aug-30 15:33N 36°28' W 009°12'1211.6
2015-Aug-30 14:33N 36°34' W 009°25'1212.4
2015-Aug-30 13:33N 36°43' W 009°35'1211.7
2015-Aug-30 12:30N 36°55' W 009°40'1212.4
2015-Aug-30 11:33N 37°06' W 009°43'1313.1
2015-Aug-30 10:33N 37°19' W 009°48'1312.2
2015-Aug-30 09:28N 37°32' W 009°51'2611.4
2015-Aug-30 07:12N 37°57' W 009°59'811.6
2015-Aug-30 06:30N 38°05' W 010°01'1212.3
2015-Aug-30 05:33N 38°16' W 010°05'1312.4
2015-Aug-30 04:32N 38°28' W 010°09'1212.1
2015-Aug-30 03:33N 38°40' W 010°12'1212.3
2015-Aug-30 02:33N 38°52' W 010°12'1212.1
2015-Aug-30 01:33N 39°04' W 010°12'1212.2
2015-Aug-30 00:33N 39°17' W 010°12'1312.6
2015-Aug-29 23:33N 39°29' W 010°12'1312.7
2015-Aug-29 22:33N 39°42' W 010°12'2812.5
2015-Aug-29 20:20N 40°10' W 010°12'1012.2
2015-Aug-29 19:33N 40°19' W 010°12'1312.6
2015-Aug-29 18:33N 40°32' W 010°12'1212.1
2015-Aug-29 17:32N 40°44' W 010°12'1211.9
2015-Aug-29 16:32N 40°56' W 010°12'  
2015-Aug-27 00:17N 50°24' W 000°37'2212.6
2015-Aug-26 22:32N 50°30' W 000°04'1311.7
2015-Aug-26 21:25N 50°33' E 000°16'911.0
2015-Aug-26 20:33N 50°36' E 000°30'1010.4
2015-Aug-26 19:33N 50°42' E 000°44'1010.1
2015-Aug-26 18:33N 50°47' E 000°58'1010.3
2015-Aug-26 17:33N 50°52' E 001°12'1111.2
2015-Aug-26 16:33N 51°00' E 001°24'1111.4
2015-Aug-26 15:33N 51°08' E 001°37'1211.7
2015-Aug-26 14:33N 51°18' E 001°48'1110.9
2015-Aug-26 13:33N 51°27' E 001°57'1010.0
2015-Aug-26 12:33N 51°35' E 002°07'10 9.9
2015-Aug-26 11:32N 51°43' E 002°18'  

Dump ship's entire track history